sensor_id;sensor_type;location;lat;lon;timestamp;temperature;humidity
1005;DHT22;491;53.480;10.174;2023-04-06T11:08:32;22.10;1.00
1005;DHT22;491;53.480;10.174;2023-04-06T11:11:09;21.00;1.00
1005;DHT22;491;53.480;10.174;2023-04-06T11:13:41;20.70;1.00
1005;DHT22;491;53.480;10.174;2023-04-06T11:16:18;20.80;1.00
1005;DHT22;491;53.480;10.174;2023-04-06T11:18:55;20.70;1.00
1005;DHT22;491;53.480;10.174;2023-04-06T11:38:53;21.60;1.00
1005;DHT22;491;53.480;10.174;2023-04-06T11:41:23;21.80;1.00
1005;DHT22;491;53.480;10.174;2023-04-06T11:43:50;21.60;1.00
1005;DHT22;491;53.480;10.174;2023-04-06T11:46:17;21.70;1.00
1005;DHT22;491;53.480;10.174;2023-04-06T11:48:46;21.10;1.00
1005;DHT22;491;53.480;10.174;2023-04-06T11:51:22;21.00;99.90
1005;DHT22;491;53.480;10.174;2023-04-06T11:53:49;21.20;1.00
1005;DHT22;491;53.480;10.174;2023-04-06T11:56:30;21.50;99.90
1005;DHT22;491;53.480;10.174;2023-04-06T11:58:58;21.70;99.90
1005;DHT22;491;53.480;10.174;2023-04-06T12:01:26;21.40;99.90
1005;DHT22;491;53.480;10.174;2023-04-06T12:03:52;21.80;99.90
1005;DHT22;491;53.480;10.174;2023-04-06T12:06:17;22.00;99.90
1005;DHT22;491;53.480;10.174;2023-04-06T12:08:46;21.60;99.90
1005;DHT22;491;53.480;10.174;2023-04-06T12:11:12;21.40;99.90
1005;DHT22;491;53.480;10.174;2023-04-06T12:13:38;21.30;99.90
1005;DHT22;491;53.480;10.174;2023-04-06T12:16:03;21.60;99.90
1005;DHT22;491;53.480;10.174;2023-04-06T12:18:30;21.80;99.90
1005;DHT22;491;53.480;10.174;2023-04-06T18:05:45;12.80;1.00
1005;DHT22;491;53.480;10.174;2023-04-06T18:08:11;12.80;1.00
1005;DHT22;491;53.480;10.174;2023-04-06T18:10:38;12.80;1.00
1005;DHT22;491;53.480;10.174;2023-04-06T18:13:04;12.80;1.00
1005;DHT22;491;53.480;10.174;2023-04-06T18:15:29;12.90;1.00
1005;DHT22;491;53.480;10.174;2023-04-06T18:17:55;13.10;1.00
1005;DHT22;491;53.480;10.174;2023-04-06T18:20:21;13.10;1.00
1005;DHT22;491;53.480;10.174;2023-04-06T18:22:46;13.00;1.00
1005;DHT22;491;53.480;10.174;2023-04-06T18:25:12;12.80;1.00
1005;DHT22;491;53.480;10.174;2023-04-06T18:27:37;12.80;1.00
1005;DHT22;491;53.480;10.174;2023-04-06T18:30:04;12.70;1.00
1005;DHT22;491;53.480;10.174;2023-04-06T18:32:29;12.70;1.00
1005;DHT22;491;53.480;10.174;2023-04-06T18:34:56;12.70;1.00
1005;DHT22;491;53.480;10.174;2023-04-06T18:37:22;12.60;1.00
1005;DHT22;491;53.480;10.174;2023-04-06T18:39:49;12.60;1.00
1005;DHT22;491;53.480;10.174;2023-04-06T18:42:15;12.60;1.00
1005;DHT22;491;53.480;10.174;2023-04-06T18:44:40;12.60;1.00
1005;DHT22;491;53.480;10.174;2023-04-06T18:47:06;12.50;1.00
1005;DHT22;491;53.480;10.174;2023-04-06T18:49:32;12.50;1.00
1005;DHT22;491;53.480;10.174;2023-04-06T18:51:57;12.50;1.00
1005;DHT22;491;53.480;10.174;2023-04-06T18:54:23;12.40;1.00
1005;DHT22;491;53.480;10.174;2023-04-06T18:56:51;12.40;1.00
1005;DHT22;491;53.480;10.174;2023-04-06T18:59:17;12.30;1.00
1005;DHT22;491;53.480;10.174;2023-04-06T19:01:43;12.30;1.00
1005;DHT22;491;53.480;10.174;2023-04-06T19:04:10;12.20;1.00
1005;DHT22;491;53.480;10.174;2023-04-06T19:06:36;12.20;1.00
1005;DHT22;491;53.480;10.174;2023-04-06T19:09:02;12.30;1.00
1005;DHT22;491;53.480;10.174;2023-04-06T19:11:29;12.20;1.00
1005;DHT22;491;53.480;10.174;2023-04-06T19:13:55;12.10;1.00
1005;DHT22;491;53.480;10.174;2023-04-06T19:16:21;11.90;1.00
1005;DHT22;491;53.480;10.174;2023-04-06T19:18:46;11.80;1.00
1005;DHT22;491;53.480;10.174;2023-04-06T19:21:19;11.80;99.90
1005;DHT22;491;53.480;10.174;2023-04-06T19:23:46;11.70;99.90
1005;DHT22;491;53.480;10.174;2023-04-06T19:26:13;11.70;99.90
1005;DHT22;491;53.480;10.174;2023-04-06T19:28:40;11.70;99.90
1005;DHT22;491;53.480;10.174;2023-04-06T19:31:06;11.70;1.00
1005;DHT22;491;53.480;10.174;2023-04-06T19:33:33;11.60;99.90
1005;DHT22;491;53.480;10.174;2023-04-06T19:36:02;11.70;99.90
1005;DHT22;491;53.480;10.174;2023-04-06T19:38:28;11.70;99.90
1005;DHT22;491;53.480;10.174;2023-04-06T19:40:53;11.60;99.90
1005;DHT22;491;53.480;10.174;2023-04-06T19:43:19;11.40;99.90
1005;DHT22;491;53.480;10.174;2023-04-06T19:45:45;11.40;99.90
1005;DHT22;491;53.480;10.174;2023-04-06T19:48:11;11.50;1.00
1005;DHT22;491;53.480;10.174;2023-04-06T19:50:39;11.50;1.00
1005;DHT22;491;53.480;10.174;2023-04-06T19:53:11;11.40;1.00
1005;DHT22;491;53.480;10.174;2023-04-06T19:55:37;11.30;1.00
1005;DHT22;491;53.480;10.174;2023-04-06T19:58:03;11.40;1.00
1005;DHT22;491;53.480;10.174;2023-04-06T20:00:29;11.30;1.00
1005;DHT22;491;53.480;10.174;2023-04-06T20:02:55;11.30;1.00
1005;DHT22;491;53.480;10.174;2023-04-06T20:05:21;11.20;1.00
1005;DHT22;491;53.480;10.174;2023-04-06T20:07:47;11.30;1.00
1005;DHT22;491;53.480;10.174;2023-04-06T20:10:14;11.20;1.00
